Terminal Aerodrome Forecast
Issued by NWS

Home | Current Version | Previous Version | Text Only | Print | Product List | Glossary On
Versions: 1 2 3 4 5 6 7 8 9 10 11 12 13 14 15
766
FTAK31 PAJN 081735
TAFAKT
TAF
PAKT 081735Z 0818/0918 14015G25KT 4SM RA BR SCT008 OVC015
      WS020/21035KT
      TEMPO 0818/0821 14030G40KT 2SM RA BR OVC008
     FM082100 14018G28KT 4SM -RA BR SCT007 SCT010 OVC025
      WS020/21040KT
      TEMPO 0821/0901 1SM RA BR SCT004 OVC008
     FM090300 16015G25KT 3SM -RA BR OVC012=

USA.gov is the U.S. government's official web portal to all federal, state and local government web resources and services.